createdAt,value
2022-07-29T00:02:25.900Z,94214.66
2022-07-29T00:04:52.659Z,94197.56
2022-07-29T00:07:19.672Z,94198.34
2022-07-29T00:09:52.139Z,94196.00
2022-07-29T00:12:26.365Z,94192.97
2022-07-29T00:14:55.343Z,94191.09
2022-07-29T00:17:22.421Z,94174.00
2022-07-29T00:19:49.155Z,94179.44
2022-07-29T00:22:16.028Z,94171.31
2022-07-29T00:24:42.671Z,94176.38
2022-07-29T00:27:09.365Z,94174.88
2022-07-29T00:29:36.125Z,94163.25
2022-07-29T00:32:03.647Z,94174.94
2022-07-29T00:34:49.629Z,94172.25
2022-07-29T00:37:16.553Z,94174.19
2022-07-29T00:39:43.420Z,94164.88
2022-07-29T00:42:10.835Z,94162.53
2022-07-29T00:44:42.386Z,94156.69
2022-07-29T00:47:10.895Z,94159.41
2022-07-29T00:49:40.496Z,94150.47
2022-07-29T00:52:08.815Z,94153.59
2022-07-29T00:54:39.846Z,94148.56
2022-07-29T00:57:12.411Z,94149.72
2022-07-29T00:59:39.262Z,94148.91
2022-07-29T01:02:06.325Z,94150.84
2022-07-29T01:04:33.406Z,94155.50
2022-07-29T01:07:02.773Z,94144.63
2022-07-29T01:09:40.836Z,94144.69
2022-07-29T01:12:20.284Z,94138.88
2022-07-29T01:14:48.758Z,94139.28
2022-07-29T01:17:25.177Z,94129.56
2022-07-29T01:20:16.139Z,94135.31
2022-07-29T01:23:09.734Z,94129.50
2022-07-29T01:25:53.123Z,94130.66
2022-07-29T01:28:57.531Z,94127.56
2022-07-29T01:31:32.438Z,94122.16
2022-07-29T01:34:06.414Z,94129.94
2022-07-29T01:36:38.161Z,94123.69
2022-07-29T01:39:22.799Z,94122.13
2022-07-29T01:41:57.512Z,94119.78
2022-07-29T01:44:32.803Z,94115.88
2022-07-29T01:47:06.010Z,94114.72
2022-07-29T01:49:37.074Z,94114.72
2022-07-29T01:52:12.291Z,94114.75
2022-07-29T01:54:43.961Z,94114.00
2022-07-29T01:57:18.412Z,94117.47
2022-07-29T01:59:48.094Z,94110.44
2022-07-29T02:02:17.519Z,94102.72
2022-07-29T02:04:49.380Z,94106.22
2022-07-29T02:07:19.005Z,94105.03
2022-07-29T02:09:47.508Z,94100.00
2022-07-29T02:12:17.498Z,94110.03
2022-07-29T02:14:48.780Z,94105.38
2022-07-29T02:17:20.901Z,94108.78
2022-07-29T02:19:50.029Z,94117.28
2022-07-29T02:22:19.445Z,94106.47
2022-07-29T02:24:48.672Z,94110.34
2022-07-29T02:27:16.268Z,94103.00
2022-07-29T02:29:44.203Z,94102.63
2022-07-29T02:32:13.603Z,94106.97
2022-07-29T02:34:41.465Z,94107.41
2022-07-29T02:37:10.858Z,94108.59
2022-07-29T02:39:39.927Z,94104.72
2022-07-29T02:42:09.500Z,94101.66
2022-07-29T02:44:36.971Z,94100.53
2022-07-29T02:47:25.565Z,94096.66
2022-07-29T02:50:05.447Z,94102.09
2022-07-29T02:53:15.659Z,94104.44
2022-07-29T02:55:46.950Z,94114.53
2022-07-29T02:58:29.534Z,94111.44
2022-07-29T03:01:06.561Z,94102.91
2022-07-29T03:03:39.922Z,94101.34
2022-07-29T03:06:08.621Z,94103.63
2022-07-29T03:08:56.363Z,94107.50
2022-07-29T03:11:42.243Z,94102.47
2022-07-29T03:14:11.144Z,94099.38
2022-07-29T03:16:41.339Z,94096.66
2022-07-29T03:19:08.575Z,94102.09
2022-07-29T03:21:35.434Z,94097.03
2022-07-29T03:24:04.516Z,94092.75
2022-07-29T03:26:35.026Z,94093.91
2022-07-29T03:29:01.694Z,94090.00
2022-07-29T03:31:28.420Z,94093.47
2022-07-29T03:33:55.193Z,94090.34
2022-07-29T03:36:21.854Z,94094.22
2022-07-29T03:38:50.274Z,94086.38
2022-07-29T03:41:19.140Z,94094.84
2022-07-29T03:43:51.886Z,94092.06
2022-07-29T03:46:21.870Z,94092.28
2022-07-29T03:48:53.874Z,94089.81
2022-07-29T03:51:33.329Z,94086.34
2022-07-29T03:54:06.384Z,94092.16
2022-07-29T03:56:40.651Z,94093.66
2022-07-29T03:59:08.679Z,94093.25
2022-07-29T04:01:36.419Z,94084.38
2022-07-29T04:04:03.810Z,94086.00
2022-07-29T04:06:39.213Z,94085.22
2022-07-29T04:09:05.877Z,94089.47
2022-07-29T04:12:02.612Z,94088.28
2022-07-29T04:14:24.557Z,94093.34
2022-07-29T04:16:51.252Z,94095.69
2022-07-29T04:19:17.926Z,94104.94
2022-07-29T04:21:46.225Z,94103.75
2022-07-29T04:24:13.207Z,94115.34
2022-07-29T04:26:40.147Z,94104.53
2022-07-29T04:29:06.801Z,94115.81
2022-07-29T04:31:33.579Z,94117.44
2022-07-29T04:34:00.306Z,94113.25
2022-07-29T04:36:29.571Z,94121.91
2022-07-29T04:38:56.879Z,94122.00
2022-07-29T04:41:23.646Z,94125.19
2022-07-29T04:44:01.956Z,94129.88
2022-07-29T04:46:29.292Z,94133.00
2022-07-29T04:48:56.436Z,94126.84
2022-07-29T04:51:23.495Z,94136.56
2022-07-29T04:53:50.207Z,94133.84
2022-07-29T04:56:16.925Z,94140.50
2022-07-29T04:58:43.649Z,94136.25
2022-07-29T05:01:10.443Z,94138.59
2022-07-29T05:03:37.170Z,94149.13
2022-07-29T05:06:04.053Z,94143.69
2022-07-29T05:08:30.772Z,94143.75
2022-07-29T05:10:57.470Z,94138.75
2022-07-29T05:13:24.524Z,94150.44
2022-07-29T05:15:51.309Z,94155.50
2022-07-29T05:18:18.073Z,94154.34
2022-07-29T05:20:44.894Z,94147.72
2022-07-29T05:23:13.856Z,94146.16
2022-07-29T05:25:44.251Z,94147.97
2022-07-29T05:28:12.392Z,94152.91
2022-07-29T05:30:39.242Z,94148.59
2022-07-29T05:33:05.957Z,94154.84
2022-07-29T05:35:32.667Z,94168.00
2022-07-29T05:37:59.343Z,94164.78
2022-07-29T05:40:26.037Z,94169.44
2022-07-29T05:42:52.852Z,94170.59
2022-07-29T05:45:19.674Z,94168.16
2022-07-29T05:47:46.616Z,94173.94
2022-07-29T05:50:13.530Z,94177.75
2022-07-29T05:52:40.313Z,94167.66
2022-07-29T05:55:07.262Z,94177.31
2022-07-29T05:57:34.042Z,94178.09
2022-07-29T06:00:00.831Z,94182.72
2022-07-29T06:02:27.794Z,94181.28
2022-07-29T06:04:54.824Z,94185.63
2022-07-29T06:07:22.126Z,94189.59
2022-07-29T06:09:49.005Z,94188.59
2022-07-29T06:12:15.778Z,94184.78
2022-07-29T06:14:42.437Z,94186.34
2022-07-29T06:17:09.425Z,94195.28
2022-07-29T06:19:37.403Z,94196.81
2022-07-29T06:22:04.984Z,94192.16
2022-07-29T06:24:31.796Z,94197.97
2022-07-29T06:26:58.514Z,94196.44
2022-07-29T06:29:25.251Z,94202.59
2022-07-29T06:31:52.111Z,94202.41
2022-07-29T06:34:19.305Z,94203.16
2022-07-29T06:36:47.697Z,94212.34
2022-07-29T06:39:15.533Z,94201.50
2022-07-29T06:41:42.420Z,94204.28
2022-07-29T06:44:11.888Z,94203.16
2022-07-29T06:46:38.709Z,94207.00
2022-07-29T06:49:05.925Z,94214.09
2022-07-29T06:51:32.744Z,94210.66
2022-07-29T06:54:02.721Z,94219.47
2022-07-29T06:56:39.283Z,94218.28
2022-07-29T06:59:08.812Z,94224.91
2022-07-29T07:01:40.918Z,94218.00
2022-07-29T07:04:09.900Z,94226.59
2022-07-29T07:06:37.145Z,94223.09
2022-07-29T07:09:04.673Z,94222.41
2022-07-29T07:11:31.694Z,94230.28
2022-07-29T07:14:02.925Z,94223.13
2022-07-29T07:16:32.051Z,94233.19
2022-07-29T07:18:59.004Z,94228.13
2022-07-29T07:21:25.705Z,94223.38
2022-07-29T07:23:52.371Z,94227.66
2022-07-29T07:26:19.128Z,94230.44
2022-07-29T07:28:45.853Z,94232.09
2022-07-29T07:31:13.254Z,94213.50
2022-07-29T07:33:39.972Z,94231.44
2022-07-29T07:36:06.717Z,94225.66
2022-07-29T07:38:34.509Z,94233.06
2022-07-29T07:41:01.486Z,94229.50
2022-07-29T07:43:28.242Z,94227.19
2022-07-29T07:45:54.935Z,94228.50
2022-07-29T07:48:21.934Z,94217.25
2022-07-29T07:50:50.364Z,94233.50
2022-07-29T07:53:17.455Z,94231.66
2022-07-29T07:56:09.502Z,94237.16
2022-07-29T07:58:31.531Z,94225.47
2022-07-29T08:00:58.277Z,94224.22
2022-07-29T08:03:25.061Z,94230.41
2022-07-29T08:05:52.913Z,94229.28
2022-07-29T08:08:19.767Z,94224.97
2022-07-29T08:10:57.157Z,94225.66
2022-07-29T08:13:31.548Z,94233.81
2022-07-29T08:16:00.865Z,94235.84
2022-07-29T08:18:32.196Z,94224.63
2022-07-29T08:20:59.756Z,94240.97
2022-07-29T08:23:31.610Z,94225.75
2022-07-29T08:26:14.550Z,94230.72
2022-07-29T08:28:45.881Z,94232.97
2022-07-29T08:31:14.130Z,94233.47
2022-07-29T08:33:40.953Z,94212.38
2022-07-29T08:36:07.871Z,94221.81
2022-07-29T08:38:34.687Z,94227.22
2022-07-29T08:41:02.930Z,94234.09
2022-07-29T08:43:30.251Z,94228.06
2022-07-29T08:45:57.081Z,94233.56
2022-07-29T08:48:24.776Z,94233.72
2022-07-29T08:50:57.253Z,94230.19
2022-07-29T08:53:27.766Z,94241.03
2022-07-29T08:55:55.013Z,94237.69
2022-07-29T08:58:23.268Z,94234.22
2022-07-29T09:00:53.909Z,94228.22
2022-07-29T09:03:25.227Z,94231.34
2022-07-29T09:05:52.987Z,94237.25
2022-07-29T09:08:21.158Z,94234.06
2022-07-29T09:10:48.496Z,94232.09
2022-07-29T09:13:15.177Z,94232.97
2022-07-29T09:15:50.666Z,94221.72
2022-07-29T09:18:39.485Z,94223.25
2022-07-29T09:21:26.680Z,94227.63
2022-07-29T09:24:03.958Z,94238.59
2022-07-29T09:26:32.480Z,94227.53
2022-07-29T09:29:00.147Z,94236.19
2022-07-29T09:31:35.646Z,94240.38
2022-07-29T09:34:02.599Z,94223.97
2022-07-29T09:36:29.506Z,94231.00
2022-07-29T09:39:04.162Z,94229.75
2022-07-29T09:41:44.470Z,94235.59
2022-07-29T09:44:11.338Z,94221.47
2022-07-29T09:46:38.239Z,94226.19
2022-07-29T09:49:10.162Z,94218.25
2022-07-29T09:51:38.326Z,94226.19
2022-07-29T09:54:28.696Z,94235.13
2022-07-29T09:56:56.794Z,94235.78
2022-07-29T09:59:27.420Z,94220.22
2022-07-29T10:01:55.046Z,94218.69
2022-07-29T10:04:22.481Z,94212.88
2022-07-29T10:07:05.378Z,94214.31
2022-07-29T10:09:34.308Z,94208.53
2022-07-29T10:12:14.483Z,94206.19
2022-07-29T10:14:42.328Z,94208.19
2022-07-29T10:17:11.123Z,94201.00
2022-07-29T10:19:39.310Z,94199.88
2022-07-29T10:22:09.622Z,94201.13
2022-07-29T10:24:38.333Z,94194.91
2022-07-29T10:27:07.455Z,94198.19
2022-07-29T10:29:35.172Z,94201.94
2022-07-29T10:32:34.660Z,94200.66
2022-07-29T10:35:13.170Z,94192.09
2022-07-29T10:38:16.174Z,94199.75
2022-07-29T10:41:19.481Z,94191.16
2022-07-29T10:43:51.365Z,94183.34
2022-07-29T10:46:19.595Z,94179.25
2022-07-29T10:49:09.259Z,94181.78
2022-07-29T10:51:51.624Z,94181.09
2022-07-29T10:54:51.213Z,94179.72
2022-07-29T10:57:54.341Z,94191.66
2022-07-29T11:00:29.565Z,94206.34
2022-07-29T11:02:59.197Z,94206.16
2022-07-29T11:05:39.920Z,94227.59
2022-07-29T11:08:20.389Z,94223.81
2022-07-29T11:11:29.668Z,94209.53
2022-07-29T11:13:57.019Z,94206.03
2022-07-29T11:16:25.263Z,94213.72
2022-07-29T11:19:26.375Z,94214.50
2022-07-29T11:21:58.462Z,94221.47
2022-07-29T11:24:33.369Z,94200.56
2022-07-29T11:27:20.085Z,94204.34
2022-07-29T11:29:52.099Z,94204.44
2022-07-29T11:32:23.220Z,94199.38
2022-07-29T11:35:19.028Z,94201.66
2022-07-29T11:37:52.773Z,94208.28
2022-07-29T11:40:24.616Z,94209.69
2022-07-29T11:42:52.497Z,94198.16
2022-07-29T11:45:42.624Z,94209.25
2022-07-29T11:48:31.766Z,94208.59
2022-07-29T11:51:00.088Z,94197.38
2022-07-29T11:56:17.788Z,94222.34
2022-07-29T11:58:45.856Z,94217.28
2022-07-29T12:01:18.448Z,94228.50
2022-07-29T12:03:45.224Z,94243.91
2022-07-29T12:06:18.342Z,94267.47
2022-07-29T12:07:02.231Z,94225.47
2022-07-29T12:08:46.015Z,94261.47
2022-07-29T12:11:21.305Z,94275.44
2022-07-29T12:13:50.026Z,94277.78
2022-07-29T12:16:26.091Z,94278.94
2022-07-29T12:19:00.653Z,94280.94
2022-07-29T12:21:30.227Z,94277.81
2022-07-29T12:24:05.979Z,94252.09
2022-07-29T12:26:36.816Z,94240.22
2022-07-29T12:29:04.095Z,94239.88
2022-07-29T12:31:43.537Z,94249.72
2022-07-29T12:34:13.171Z,94253.72
2022-07-29T12:36:41.470Z,94260.06
2022-07-29T12:39:10.114Z,94235.25
2022-07-29T12:41:37.022Z,94230.56
2022-07-29T12:44:04.201Z,94218.03
2022-07-29T12:46:31.237Z,94228.19
2022-07-29T12:48:58.485Z,94229.06
2022-07-29T12:51:33.985Z,94243.53
2022-07-29T12:54:11.499Z,94243.19
2022-07-29T12:56:43.994Z,94242.44
2022-07-29T12:59:16.353Z,94256.03
2022-07-29T13:01:43.385Z,94246.28
2022-07-29T13:04:11.201Z,94255.25
2022-07-29T13:06:41.195Z,94252.53
2022-07-29T13:09:14.401Z,94250.94
2022-07-29T13:11:47.921Z,94273.50
2022-07-29T13:14:32.645Z,94263.31
2022-07-29T13:17:08.727Z,94264.50
2022-07-29T13:20:10.266Z,94253.22
2022-07-29T13:22:37.042Z,94255.53
2022-07-29T13:25:04.279Z,94261.72
2022-07-29T13:27:33.333Z,94257.88
2022-07-29T13:30:02.202Z,94254.00
2022-07-29T13:32:30.834Z,94261.81
2022-07-29T13:34:59.665Z,94250.91
2022-07-29T13:37:27.376Z,94240.88
2022-07-29T13:39:55.153Z,94240.09
2022-07-29T13:42:21.903Z,94230.41
2022-07-29T13:44:51.759Z,94227.72
2022-07-29T13:47:22.323Z,94222.63
2022-07-29T13:50:00.465Z,94219.94
2022-07-29T13:52:27.214Z,94205.22
2022-07-29T13:54:53.997Z,94185.41
2022-07-29T13:57:20.917Z,94189.69
2022-07-29T13:59:53.455Z,94178.44
2022-07-29T14:02:20.904Z,94188.16
2022-07-29T14:04:52.575Z,94192.81
2022-07-29T14:07:29.030Z,94195.91
2022-07-29T14:09:56.166Z,94211.75
2022-07-29T14:12:23.880Z,94224.94
2022-07-29T14:14:51.162Z,94222.63
2022-07-29T14:17:18.074Z,94229.22
2022-07-29T14:19:44.874Z,94219.13
2022-07-29T14:22:11.671Z,94219.94
2022-07-29T14:24:39.061Z,94228.91
2022-07-29T14:27:07.146Z,94249.53
2022-07-29T14:29:37.343Z,94228.94
2022-07-29T14:32:08.370Z,94227.78
2022-07-29T14:34:36.590Z,94207.19
2022-07-29T14:37:06.471Z,94208.34
2022-07-29T14:39:36.936Z,94207.56
2022-07-29T14:42:06.498Z,94207.56
2022-07-29T14:44:33.364Z,94211.84
2022-07-29T14:47:01.238Z,94218.47
2022-07-29T14:49:34.667Z,94210.31
2022-07-29T14:52:01.562Z,94223.53
2022-07-29T14:54:28.478Z,94216.16
2022-07-29T14:56:58.156Z,94225.47
2022-07-29T14:59:25.711Z,94225.44
2022-07-29T15:01:52.541Z,94222.34
2022-07-29T15:04:19.361Z,94220.78
2022-07-29T15:06:46.332Z,94219.22
2022-07-29T15:09:13.949Z,94209.88
2022-07-29T15:11:40.851Z,94216.50
2022-07-29T15:14:07.709Z,94218.84
2022-07-29T15:16:37.628Z,94219.22
2022-07-29T15:19:05.559Z,94237.09
2022-07-29T15:21:32.605Z,94237.09
2022-07-29T15:23:59.343Z,94229.31
2022-07-29T15:26:26.450Z,94240.97
2022-07-29T15:28:53.175Z,94231.66
2022-07-29T15:31:20.069Z,94232.41
2022-07-29T15:33:46.830Z,94227.38
2022-07-29T15:36:35.803Z,94235.94
2022-07-29T15:39:00.653Z,94234.78
2022-07-29T15:41:27.565Z,94230.09
2022-07-29T15:43:54.366Z,94238.66
2022-07-29T15:46:40.115Z,94240.97
2022-07-29T15:49:07.867Z,94244.09
2022-07-29T15:51:35.144Z,94248.38
2022-07-29T15:54:03.725Z,94246.84
2022-07-29T15:56:31.405Z,94251.13
2022-07-29T15:58:58.744Z,94249.56
2022-07-29T16:01:25.646Z,94240.63
2022-07-29T16:03:53.189Z,94245.66
2022-07-29T16:06:20.659Z,94245.66
2022-07-29T16:08:47.366Z,94239.44
2022-07-29T16:11:14.163Z,94236.72
2022-07-29T16:13:40.900Z,94243.31
2022-07-29T16:16:08.150Z,94242.53
2022-07-29T16:18:34.932Z,94241.00
2022-07-29T16:21:01.745Z,94241.72
2022-07-29T16:23:28.564Z,94243.66
2022-07-29T16:25:59.984Z,94246.38
2022-07-29T16:28:28.030Z,94239.41
2022-07-29T16:30:54.738Z,94232.34
2022-07-29T16:33:21.460Z,94247.44
2022-07-29T16:35:48.109Z,94247.41
2022-07-29T16:38:14.890Z,94249.69
2022-07-29T16:40:42.207Z,94246.22
2022-07-29T16:43:09.230Z,94256.72
2022-07-29T16:45:43.952Z,94256.72
2022-07-29T16:48:13.609Z,94248.91
2022-07-29T16:50:40.977Z,94261.78
2022-07-29T16:53:10.368Z,94261.75
2022-07-29T16:55:37.329Z,94266.78
2022-07-29T16:58:04.105Z,94267.16
2022-07-29T17:00:30.970Z,94275.69
2022-07-29T17:02:57.826Z,94275.28
2022-07-29T17:05:24.582Z,94275.69
2022-07-29T17:07:51.346Z,94276.09
2022-07-29T17:10:18.257Z,94279.13
2022-07-29T17:12:45.353Z,94276.38
2022-07-29T17:15:12.847Z,94270.53
2022-07-29T17:17:55.312Z,94274.34
2022-07-29T17:20:23.751Z,94277.41
2022-07-29T17:22:50.479Z,94278.56
2022-07-29T17:25:20.930Z,94274.59
2022-07-29T17:27:50.684Z,94276.16
2022-07-29T17:30:18.515Z,94277.31
2022-07-29T17:32:45.266Z,94279.59
2022-07-29T17:35:30.729Z,94277.66
2022-07-29T17:37:57.504Z,94278.47
2022-07-29T17:40:24.440Z,94283.91
2022-07-29T17:42:51.569Z,94286.97
2022-07-29T17:45:18.263Z,94285.03
2022-07-29T17:47:45.455Z,94272.25
2022-07-29T17:50:12.215Z,94288.91
2022-07-29T17:52:39.279Z,94283.88
2022-07-29T17:55:07.089Z,94280.78
2022-07-29T17:57:34.272Z,94286.56
2022-07-29T18:00:00.969Z,94288.09
2022-07-29T18:02:28.594Z,94277.25
2022-07-29T18:04:55.498Z,94282.69
2022-07-29T18:07:22.251Z,94280.31
2022-07-29T18:09:48.964Z,94282.25
2022-07-29T18:12:15.687Z,94279.53
2022-07-29T18:14:42.374Z,94286.91
2022-07-29T18:17:09.071Z,94284.56
2022-07-29T18:19:35.803Z,94297.75
2022-07-29T18:22:05.214Z,94301.19
2022-07-29T18:24:32.753Z,94300.72
2022-07-29T18:26:59.748Z,94303.06
2022-07-29T18:29:29.041Z,94302.63
2022-07-29T18:31:56.151Z,94306.91
2022-07-29T18:34:22.809Z,94299.13
2022-07-29T18:36:49.542Z,94307.66
2022-07-29T18:39:20.722Z,94303.38
2022-07-29T18:41:50.577Z,94308.44
2022-07-29T18:44:19.430Z,94299.13
2022-07-29T18:46:49.169Z,94312.31
2022-07-29T18:49:16.075Z,94316.19
2022-07-29T18:51:44.171Z,94325.84
2022-07-29T18:54:10.866Z,94327.78
2022-07-29T18:56:37.689Z,94316.91
2022-07-29T18:59:04.759Z,94322.78
2022-07-29T19:01:33.007Z,94318.50
2022-07-29T19:04:00.386Z,94313.03
2022-07-29T19:06:27.076Z,94310.66
2022-07-29T19:08:53.977Z,94315.34
2022-07-29T19:11:20.694Z,94313.78
2022-07-29T19:13:47.404Z,94326.97
2022-07-29T19:16:14.647Z,94330.13
2022-07-29T19:18:41.810Z,94326.97
2022-07-29T19:21:09.046Z,94340.22
2022-07-29T19:24:06.269Z,94334.38
2022-07-29T19:26:23.086Z,94338.66
2022-07-29T19:28:53.076Z,94353.31
2022-07-29T19:31:19.795Z,94363.72
2022-07-29T19:33:46.541Z,94384.78
2022-07-29T19:36:13.297Z,94406.19
2022-07-29T19:38:40.557Z,94400.69
2022-07-29T19:41:07.380Z,94405.06
2022-07-29T19:43:49.697Z,94388.34
2022-07-29T19:46:20.476Z,94374.16
2022-07-29T19:48:47.485Z,94358.16
2022-07-29T19:51:14.296Z,94376.44
2022-07-29T19:53:40.991Z,94374.94
2022-07-29T19:56:08.903Z,94361.44
2022-07-29T19:58:36.079Z,94359.91
2022-07-29T20:01:10.308Z,94356.06
2022-07-29T20:03:40.829Z,94355.66
2022-07-29T20:06:07.837Z,94344.81
2022-07-29T20:08:34.761Z,94347.53
2022-07-29T20:11:01.626Z,94356.47
2022-07-29T20:13:31.289Z,94357.63
2022-07-29T20:15:58.234Z,94353.69
2022-07-29T20:18:25.177Z,94359.19
2022-07-29T20:20:51.965Z,94363.06
2022-07-29T20:23:19.414Z,94369.28
2022-07-29T20:25:46.155Z,94359.16
2022-07-29T20:28:12.960Z,94376.22
2022-07-29T20:30:39.834Z,94366.84
2022-07-29T20:33:07.004Z,94367.22
2022-07-29T20:35:34.072Z,94371.44
2022-07-29T20:38:01.111Z,94365.19
2022-07-29T20:40:29.258Z,94364.41
2022-07-29T20:42:55.988Z,94369.47
2022-07-29T20:45:23.761Z,94360.13
2022-07-29T20:47:51.972Z,94371.72
2022-07-29T20:50:20.576Z,94366.66
2022-07-29T20:52:51.092Z,94375.59
2022-07-29T20:55:17.789Z,94361.56
2022-07-29T20:57:44.513Z,94374.03
2022-07-29T21:00:12.493Z,94372.47
2022-07-29T21:02:39.237Z,94367.78
2022-07-29T21:05:06.525Z,94370.50
2022-07-29T21:07:33.276Z,94369.75
2022-07-29T21:10:00.057Z,94376.69
2022-07-29T21:12:26.929Z,94378.66
2022-07-29T21:14:53.689Z,94404.00
2022-07-29T21:17:22.490Z,94399.84
2022-07-29T21:19:55.631Z,94385.88
2022-07-29T21:22:22.588Z,94390.75
2022-07-29T21:24:49.505Z,94405.06
2022-07-29T21:27:35.439Z,94405.13
2022-07-29T21:30:07.558Z,94403.16
2022-07-29T21:32:34.382Z,94391.03
2022-07-29T21:35:01.327Z,94397.88
2022-07-29T21:37:28.393Z,94396.78
2022-07-29T21:39:55.458Z,94397.94
2022-07-29T21:42:22.329Z,94401.78
2022-07-29T21:44:49.375Z,94397.00
2022-07-29T21:47:16.273Z,94390.75
2022-07-29T21:49:43.033Z,94394.22
2022-07-29T21:52:09.746Z,94395.78
2022-07-29T21:54:37.662Z,94383.81
2022-07-29T21:57:05.845Z,94382.22
2022-07-29T21:59:32.993Z,94386.41
2022-07-29T22:02:01.891Z,94373.63
2022-07-29T22:04:30.123Z,94386.16
2022-07-29T22:06:59.416Z,94381.09
2022-07-29T22:09:26.426Z,94381.41
2022-07-29T22:11:54.345Z,94378.66
2022-07-29T22:14:21.410Z,94379.06
2022-07-29T22:16:49.052Z,94378.31
2022-07-29T22:19:16.354Z,94381.47
2022-07-29T22:21:43.509Z,94378.31
2022-07-29T22:24:11.676Z,94372.94
2022-07-29T22:26:39.126Z,94372.59
2022-07-29T22:29:06.831Z,94371.84
2022-07-29T22:31:34.074Z,94367.94
2022-07-29T22:34:01.539Z,94373.38
2022-07-29T22:36:28.648Z,94361.69
2022-07-29T22:38:55.713Z,94365.13
2022-07-29T22:41:22.695Z,94360.84
2022-07-29T22:43:49.432Z,94363.84
2022-07-29T22:46:16.422Z,94355.28
2022-07-29T22:48:43.181Z,94351.78
2022-07-29T22:51:10.103Z,94345.50
2022-07-29T22:53:36.927Z,94353.97
2022-07-29T22:56:04.139Z,94348.00
2022-07-29T22:58:30.881Z,94354.81
2022-07-29T23:00:57.831Z,94354.38
2022-07-29T23:03:24.649Z,94344.22
2022-07-29T23:05:51.964Z,94347.28
2022-07-29T23:08:19.325Z,94345.31
2022-07-29T23:10:46.168Z,94348.03
2022-07-29T23:13:13.549Z,94337.19
2022-07-29T23:15:40.652Z,94341.03
2022-07-29T23:18:07.703Z,94352.72
2022-07-29T23:20:34.532Z,94339.94
2022-07-29T23:23:01.260Z,94340.72
2022-07-29T23:25:28.088Z,94342.25
2022-07-29T23:27:54.761Z,94338.75
2022-07-29T23:30:21.556Z,94339.81
2022-07-29T23:32:48.325Z,94342.47
2022-07-29T23:35:15.090Z,94335.06
2022-07-29T23:37:41.858Z,94321.78
2022-07-29T23:40:13.792Z,94329.13
2022-07-29T23:42:42.346Z,94322.78
2022-07-29T23:45:10.326Z,94326.56
2022-07-29T23:47:37.048Z,94322.66
2022-07-29T23:50:07.944Z,94312.94
2022-07-29T23:52:35.568Z,94316.41
2022-07-29T23:55:36.503Z,94315.22
2022-07-29T23:57:49.517Z,94316.22
